createdAt,value
2018-11-04T00:03:10.925Z,90.35
2018-11-04T00:08:13.357Z,90.24
2018-11-04T00:13:15.812Z,90.68
2018-11-04T00:18:18.057Z,90.38
2018-11-04T00:23:20.347Z,90.26
2018-11-04T00:28:22.643Z,90.76
2018-11-04T00:33:25.062Z,90.51
2018-11-04T00:38:27.424Z,90.64
2018-11-04T00:43:29.890Z,90.32
2018-11-04T00:48:32.545Z,90.54
2018-11-04T00:53:34.935Z,90.37
2018-11-04T00:58:37.315Z,90.32
2018-11-04T01:03:39.726Z,90.28
2018-11-04T01:08:42.103Z,90.61
2018-11-04T01:13:44.668Z,90.68
2018-11-04T01:18:47.070Z,90.79
2018-11-04T01:23:49.447Z,90.55
2018-11-04T01:28:51.850Z,91.11
2018-11-04T01:33:54.206Z,91.12
2018-11-04T01:38:56.592Z,91.75
2018-11-04T01:43:58.930Z,91.12
2018-11-04T01:49:01.225Z,91.64
2018-11-04T01:54:04.253Z,91.66
2018-11-04T01:59:07.705Z,91.74
2018-11-04T02:04:10.093Z,91.98
2018-11-04T02:09:12.748Z,92.05
2018-11-04T02:14:15.089Z,91.90
2018-11-04T02:19:17.383Z,91.33
2018-11-04T02:24:19.741Z,91.87
2018-11-04T02:29:22.022Z,91.98
2018-11-04T02:34:24.382Z,92.03
2018-11-04T02:39:26.697Z,92.71
2018-11-04T02:44:29.113Z,91.90
2018-11-04T02:49:31.428Z,91.75
2018-11-04T02:54:33.738Z,91.97
2018-11-04T02:59:36.131Z,92.32
2018-11-04T03:04:38.491Z,92.16
2018-11-04T03:09:40.858Z,92.16
2018-11-04T03:14:43.234Z,92.22
2018-11-04T03:19:45.558Z,91.92
2018-11-04T03:24:47.998Z,92.24
2018-11-04T03:29:50.214Z,92.58
2018-11-04T03:34:52.549Z,92.49
2018-11-04T03:39:54.828Z,92.92
2018-11-04T03:44:57.232Z,92.62
2018-11-04T03:49:59.643Z,92.99
2018-11-04T03:55:01.937Z,93.32
2018-11-04T04:00:05.362Z,93.55
2018-11-04T04:05:08.560Z,93.50
2018-11-04T04:10:10.865Z,94.02
2018-11-04T04:15:13.225Z,93.96
2018-11-04T04:20:15.530Z,94.05
2018-11-04T04:25:17.893Z,93.75
2018-11-04T04:30:20.532Z,93.82
2018-11-04T04:35:22.869Z,93.53
2018-11-04T04:40:25.162Z,94.05
2018-11-04T04:45:27.517Z,93.57
2018-11-04T04:50:29.821Z,93.93
2018-11-04T04:55:32.232Z,94.43
2018-11-04T05:00:34.752Z,94.57
2018-11-04T05:05:37.059Z,94.06
2018-11-04T05:10:39.368Z,94.04
2018-11-04T05:15:41.812Z,93.97
2018-11-04T05:20:44.115Z,93.47
2018-11-04T05:25:46.435Z,93.53
2018-11-04T05:30:49.019Z,93.57
2018-11-04T05:35:51.372Z,93.53
2018-11-04T05:40:53.675Z,93.53
2018-11-04T05:45:56.051Z,93.45
2018-11-04T05:50:58.352Z,93.27
2018-11-04T05:56:00.692Z,93.20
2018-11-04T06:01:03.191Z,93.36
2018-11-04T06:06:05.528Z,93.17
2018-11-04T06:11:07.818Z,93.05
2018-11-04T06:16:10.240Z,93.29
2018-11-04T06:21:12.559Z,92.98
2018-11-04T06:26:14.864Z,92.96
2018-11-04T06:31:17.196Z,93.21
2018-11-04T06:36:19.691Z,92.68
2018-11-04T06:41:22.096Z,92.41
2018-11-04T06:46:24.442Z,92.81
2018-11-04T06:51:26.744Z,92.72
2018-11-04T06:56:29.039Z,92.73
2018-11-04T07:01:31.345Z,92.75
2018-11-04T07:06:33.648Z,92.46
2018-11-04T07:11:36.117Z,92.48
2018-11-04T07:16:38.471Z,92.47
2018-11-04T07:21:40.808Z,92.27
2018-11-04T07:26:43.409Z,92.35
2018-11-04T07:31:45.904Z,91.73
2018-11-04T07:36:48.215Z,92.13
2018-11-04T07:41:50.514Z,91.80
2018-11-04T07:46:52.974Z,91.50
2018-11-04T07:51:55.804Z,91.65
2018-11-04T07:56:58.147Z,91.52
2018-11-04T08:02:00.692Z,91.68
2018-11-04T08:07:03.316Z,91.45
2018-11-04T08:12:05.641Z,91.37
2018-11-04T08:17:08.042Z,91.62
2018-11-04T08:22:10.345Z,91.29
2018-11-04T08:27:12.687Z,91.36
2018-11-04T08:32:15.027Z,91.23
2018-11-04T08:37:17.333Z,90.72
2018-11-04T08:42:19.835Z,90.66
2018-11-04T08:47:22.277Z,90.68
2018-11-04T08:52:24.656Z,90.54
2018-11-04T08:57:26.929Z,90.26
2018-11-04T09:02:29.224Z,90.28
2018-11-04T09:07:31.552Z,89.88
2018-11-04T09:12:33.872Z,90.00
2018-11-04T09:17:36.303Z,89.26
2018-11-04T09:22:39.076Z,89.68
2018-11-04T09:27:41.397Z,89.07
2018-11-04T09:32:44.451Z,89.06
2018-11-04T09:37:46.780Z,88.12
2018-11-04T09:42:49.102Z,88.33
2018-11-04T09:47:51.432Z,87.97
2018-11-04T09:52:53.804Z,87.69
2018-11-04T09:57:56.106Z,87.70
2018-11-04T10:02:58.427Z,87.37
2018-11-04T10:08:00.747Z,87.02
2018-11-04T10:13:03.130Z,86.40
2018-11-04T10:18:05.476Z,86.76
2018-11-04T10:23:07.785Z,86.42
2018-11-04T10:28:10.199Z,86.49
2018-11-04T10:33:12.513Z,86.62
2018-11-04T10:38:14.841Z,86.08
2018-11-04T10:43:17.222Z,85.75
2018-11-04T10:48:19.598Z,85.31
2018-11-04T10:53:21.939Z,85.40
2018-11-04T10:58:24.347Z,84.89
2018-11-04T11:03:26.715Z,84.68
2018-11-04T11:08:29.074Z,85.17
2018-11-04T11:13:31.394Z,84.56
2018-11-04T11:18:33.743Z,85.10
2018-11-04T11:23:36.038Z,84.37
2018-11-04T11:28:38.772Z,84.83
2018-11-04T11:33:41.099Z,83.68
2018-11-04T11:38:43.640Z,84.07
2018-11-04T11:43:46.097Z,83.50
2018-11-04T11:48:48.492Z,84.29
2018-11-04T11:53:50.795Z,83.31
2018-11-04T11:58:53.193Z,83.12
2018-11-04T12:03:56.812Z,82.85
2018-11-04T12:08:59.208Z,82.19
2018-11-04T12:14:02.072Z,82.06
2018-11-04T12:19:04.467Z,82.17
2018-11-04T12:24:06.948Z,82.43
2018-11-04T12:29:09.278Z,82.51
2018-11-04T12:34:11.603Z,82.36
2018-11-04T12:39:13.951Z,82.46
2018-11-04T12:44:16.494Z,81.86
2018-11-04T12:49:19.374Z,81.68
2018-11-04T12:54:21.672Z,81.26
2018-11-04T12:59:23.980Z,82.26
2018-11-04T13:04:26.271Z,82.06
2018-11-04T13:09:28.761Z,82.05
2018-11-04T13:14:31.092Z,82.24
2018-11-04T13:19:33.472Z,82.28
2018-11-04T13:24:35.928Z,82.28
2018-11-04T13:29:38.233Z,82.50
2018-11-04T13:34:40.644Z,81.43
2018-11-04T13:39:42.976Z,81.30
2018-11-04T13:44:45.306Z,81.85
2018-11-04T13:49:47.667Z,81.60
2018-11-04T13:54:49.980Z,82.24
2018-11-04T13:59:52.279Z,81.44
2018-11-04T14:04:54.579Z,82.38
2018-11-04T14:09:56.967Z,82.38
2018-11-04T14:14:59.337Z,81.81
2018-11-04T14:20:02.747Z,82.00
2018-11-04T14:25:05.980Z,82.07
2018-11-04T14:30:11.507Z,82.37
2018-11-04T14:35:13.863Z,82.74
2018-11-04T14:40:16.172Z,82.60
2018-11-04T14:45:18.484Z,82.94
2018-11-04T14:50:20.876Z,82.26
2018-11-04T14:55:23.272Z,82.84
2018-11-04T15:00:25.689Z,83.49
2018-11-04T15:05:28.113Z,83.71
2018-11-04T15:10:30.571Z,83.64
2018-11-04T15:15:33.019Z,83.99
2018-11-04T15:20:35.534Z,84.62
2018-11-04T15:25:37.864Z,85.18
2018-11-04T15:30:40.205Z,85.63
2018-11-04T15:35:42.588Z,85.98
2018-11-04T15:40:45.032Z,85.95
2018-11-04T15:45:47.823Z,86.18
2018-11-04T15:50:50.403Z,86.69
2018-11-04T15:55:52.848Z,87.01
2018-11-04T16:00:55.254Z,87.17
2018-11-04T16:05:57.678Z,87.57
2018-11-04T16:10:59.940Z,87.42
2018-11-04T16:16:02.329Z,87.70
2018-11-04T16:21:04.843Z,87.75
2018-11-04T16:26:07.184Z,88.14
2018-11-04T16:31:09.700Z,88.06
2018-11-04T16:36:12.224Z,88.22
2018-11-04T16:41:14.599Z,88.02
2018-11-04T16:46:16.928Z,88.03
2018-11-04T16:51:19.275Z,87.86
2018-11-04T16:56:21.689Z,88.38
2018-11-04T17:01:24.763Z,87.71
2018-11-04T17:06:27.141Z,88.21
2018-11-04T17:11:29.545Z,88.26
2018-11-04T17:16:31.872Z,88.29
2018-11-04T17:21:34.247Z,88.53
2018-11-04T17:26:36.576Z,88.68
2018-11-04T17:31:38.907Z,89.37
2018-11-04T17:36:41.306Z,88.60
2018-11-04T17:41:43.613Z,89.05
2018-11-04T17:46:45.900Z,89.13
2018-11-04T17:51:48.581Z,88.92
2018-11-04T17:56:51.086Z,88.83
2018-11-04T18:01:53.400Z,89.34
2018-11-04T18:06:55.776Z,89.40
2018-11-04T18:11:58.076Z,89.54
2018-11-04T18:17:00.357Z,89.52
2018-11-04T18:22:02.741Z,89.67
2018-11-04T18:27:05.121Z,89.08
2018-11-04T18:32:08.094Z,89.20
2018-11-04T18:37:10.352Z,89.23
2018-11-04T18:42:13.085Z,90.00
2018-11-04T18:47:15.555Z,89.80
2018-11-04T18:52:18.077Z,89.74
2018-11-04T18:57:20.314Z,89.96
2018-11-04T19:02:22.669Z,90.10
2018-11-04T19:07:25.079Z,89.91
2018-11-04T19:12:28.683Z,89.55
2018-11-04T19:17:31.076Z,89.73
2018-11-04T19:22:33.503Z,89.92
2018-11-04T19:27:35.913Z,89.29
2018-11-04T19:32:39.724Z,89.44
2018-11-04T19:37:42.092Z,89.49
2018-11-04T19:42:44.463Z,90.13
2018-11-04T19:47:46.728Z,89.97
2018-11-04T19:52:49.261Z,89.71
2018-11-04T19:57:51.567Z,90.39
2018-11-04T20:02:53.884Z,90.37
2018-11-04T20:07:56.199Z,90.38
2018-11-04T20:13:04.262Z,90.29
2018-11-04T20:18:12.446Z,90.27
2018-11-04T20:23:14.795Z,90.29
2018-11-04T20:28:17.080Z,90.12
2018-11-04T20:33:19.507Z,89.63
2018-11-04T20:38:27.679Z,89.77
2018-11-04T20:43:30.034Z,90.05
2018-11-04T20:48:38.132Z,90.33
2018-11-04T20:53:40.503Z,90.09
2018-11-04T20:58:42.815Z,89.64
2018-11-04T21:03:45.171Z,89.05
2018-11-04T21:08:47.459Z,89.62
2018-11-04T21:13:49.788Z,88.87
2018-11-04T21:18:52.069Z,88.72
2018-11-04T21:23:54.432Z,88.46
2018-11-04T21:28:57.100Z,88.53
2018-11-04T21:33:59.381Z,88.39
2018-11-04T21:39:01.693Z,88.26
2018-11-04T21:44:04.184Z,88.44
2018-11-04T21:49:06.354Z,88.28
2018-11-04T21:54:08.781Z,88.04
2018-11-04T21:59:11.077Z,88.04
2018-11-04T22:04:13.558Z,87.94
2018-11-04T22:09:15.859Z,88.17
2018-11-04T22:14:18.161Z,88.04
2018-11-04T22:19:20.524Z,87.77
2018-11-04T22:24:22.996Z,88.16
2018-11-04T22:29:25.279Z,87.82
2018-11-04T22:34:27.597Z,88.06
2018-11-04T22:39:29.971Z,88.17
2018-11-04T22:44:32.275Z,87.75
2018-11-04T22:49:34.557Z,87.62
2018-11-04T22:54:36.928Z,87.41
2018-11-04T22:59:39.235Z,87.72
2018-11-04T23:04:47.253Z,87.48
2018-11-04T23:09:49.576Z,87.12
2018-11-04T23:14:51.873Z,87.46
2018-11-04T23:19:54.210Z,87.86
2018-11-04T23:24:56.541Z,87.86
2018-11-04T23:29:58.851Z,87.70
2018-11-04T23:35:01.178Z,87.43
2018-11-04T23:40:03.560Z,87.97
2018-11-04T23:45:07.003Z,87.74
2018-11-04T23:50:12.429Z,87.16
2018-11-04T23:55:15.211Z,87.63
